Time;durP1;ratioP1;P1;durP2;ratioP2;P2;SDS_P1;SDS_P2;PMS_P1;PMS_P2;Temp;Humidity;BMP_temperature;BMP_pressure;BME280_temperature;BME280_humidity;BME280_pressure;Samples;Min_cycle;Max_cycle;Signal;HPM_P1;HPM_P2
2022/11/11 00:00:32;;;;;;;9.00;2.60;;;;;;;;;;5042456;28;20064;-60
2022/11/11 00:03:12;;;;;;;11.50;2.90;;;;;;;;;;5033812;28;20037;-61
2022/11/11 00:05:38;;;;;;;9.43;2.85;;;;;;;;;;5032853;28;20460;-62
2022/11/11 00:08:04;;;;;;;8.95;2.78;;;;;;;;;;5029547;28;20056;-61
2022/11/11 00:10:30;;;;;;;7.63;2.80;;;;;;;;;;5038905;28;20055;-62
2022/11/11 00:13:00;;;;;;;7.05;2.38;;;;;;;;;;5037129;28;20111;-60
2022/11/11 00:15:27;;;;;;;8.38;2.50;;;;;;;;;;5037519;28;20054;-60
2022/11/11 00:26:11;;;;;;;4.47;1.67;;;;;;;;;;5037704;28;20037;-61
2022/11/11 00:28:37;;;;;;;5.20;1.85;;;;;;;;;;5037801;28;20449;-62
2022/11/11 00:31:04;;;;;;;6.95;1.75;;;;;;;;;;5037696;28;20053;-61
2022/11/11 00:33:31;;;;;;;8.57;2.40;;;;;;;;;;5036801;28;20104;-62
2022/11/11 00:35:58;;;;;;;6.68;1.70;;;;;;;;;;5036452;28;20053;-60
2022/11/11 00:41:08;;;;;;;8.38;1.60;;;;;;;;;;5036278;28;20041;-59
2022/11/11 00:43:34;;;;;;;4.35;1.42;;;;;;;;;;5041492;28;20554;-61
2022/11/11 00:51:29;;;;;;;;;;;;;;;;;;5039419;28;20049;-62
2022/11/11 00:53:55;;;;;;;11.70;1.33;;;;;;;;;;5030758;28;19927;-59
2022/11/11 00:56:22;;;;;;;11.38;1.48;;;;;;;;;;5037711;28;20069;-61
2022/11/11 00:58:49;;;;;;;7.80;1.35;;;;;;;;;;5027911;28;20330;-61
2022/11/11 01:01:15;;;;;;;8.43;1.25;;;;;;;;;;5037745;28;20061;-60
2022/11/11 01:03:41;;;;;;;5.82;1.50;;;;;;;;;;5041696;28;20045;-61
2022/11/11 01:06:09;;;;;;;7.35;1.55;;;;;;;;;;5030664;28;20049;-61
2022/11/11 01:08:35;;;;;;;3.63;1.20;;;;;;;;;;5029432;28;20522;-62
2022/11/11 01:11:01;;;;;;;3.08;1.00;;;;;;;;;;5036021;28;20425;-60
2022/11/11 01:13:30;;;;;;;5.03;1.38;;;;;;;;;;5039756;28;20049;-60
2022/11/11 01:16:04;;;;;;;6.82;1.25;;;;;;;;;;5017332;28;20068;-62
2022/11/11 01:18:30;;;;;;;4.03;1.20;;;;;;;;;;5042199;28;20075;-60
2022/11/11 01:21:01;;;;;;;4.05;1.30;;;;;;;;;;5040891;28;20041;-60
2022/11/11 01:23:27;;;;;;;3.50;1.02;;;;;;;;;;5034925;28;20445;-60
2022/11/11 01:25:53;;;;;;;5.78;1.20;;;;;;;;;;5032857;28;20034;-61
2022/11/11 01:28:19;;;;;;;3.15;1.08;;;;;;;;;;5035139;28;20057;-59
2022/11/11 01:30:45;;;;;;;5.15;1.50;;;;;;;;;;5031432;28;20045;-65
2022/11/11 01:33:11;;;;;;;5.13;1.33;;;;;;;;;;5034312;28;20411;-65
2022/11/11 01:35:38;;;;;;;4.30;1.55;;;;;;;;;;5033212;28;20576;-66
2022/11/11 01:38:05;;;;;;;9.38;1.45;;;;;;;;;;5038342;28;20041;-64
2022/11/11 01:40:38;;;;;;;10.30;1.85;;;;;;;;;;5034564;28;20044;-65
2022/11/11 01:43:04;;;;;;;4.45;1.52;;;;;;;;;;5040210;28;20052;-67
2022/11/11 01:45:50;;;;;;;6.82;1.90;;;;;;;;;;5037075;28;20049;-66
2022/11/11 01:51:13;;;;;;;5.43;1.20;;;;;;;;;;5031479;28;20049;-66
2022/11/11 01:53:39;;;;;;;;;;;;;;;;;;5040805;28;20049;-67
2022/11/11 01:56:08;;;;;;;5.47;1.83;;;;;;;;;;5038951;28;20316;-66
2022/11/11 01:58:35;;;;;;;5.20;1.50;;;;;;;;;;5042130;28;20065;-66
2022/11/11 02:01:01;;;;;;;4.43;1.40;;;;;;;;;;5038209;28;20045;-65
2022/11/11 02:03:30;;;;;;;7.43;1.50;;;;;;;;;;5043436;28;20272;-66
2022/11/11 02:05:56;;;;;;;2.78;0.95;;;;;;;;;;5040474;28;20128;-66
2022/11/11 02:08:34;;;;;;;2.70;1.15;;;;;;;;;;5033423;28;20554;-66
2022/11/11 02:11:08;;;;;;;3.88;1.08;;;;;;;;;;5041922;28;20509;-66
2022/11/11 02:17:22;;;;;;;3.88;0.98;;;;;;;;;;5685771;23;20089;-62
2022/11/11 02:19:53;;;;;;;3.92;0.73;;;;;;;;;;5049911;28;20512;-62
2022/11/11 02:22:28;;;;;;;4.75;1.17;;;;;;;;;;5045368;28;20167;-63
2022/11/11 02:24:57;;;;;;;4.15;1.33;;;;;;;;;;5047006;28;20049;-61
2022/11/11 02:27:25;;;;;;;3.58;1.00;;;;;;;;;;5041738;28;20057;-61
2022/11/11 02:29:54;;;;;;;3.15;1.05;;;;;;;;;;5047491;28;20102;-65
2022/11/11 02:32:20;;;;;;;3.65;1.05;;;;;;;;;;5044628;28;20040;-64
2022/11/11 02:34:45;;;;;;;4.10;0.95;;;;;;;;;;5040690;28;20095;-63
2022/11/11 02:37:19;;;;;;;1.73;0.90;;;;;;;;;;5027648;28;20166;-63
2022/11/11 02:39:48;;;;;;;4.70;1.13;;;;;;;;;;5032325;28;20111;-63
2022/11/11 02:42:15;;;;;;;3.70;0.95;;;;;;;;;;5039302;28;20049;-63
2022/11/11 02:44:41;;;;;;;2.20;0.80;;;;;;;;;;5043436;28;20136;-68
2022/11/11 02:47:07;;;;;;;3.53;1.02;;;;;;;;;;5046271;28;20516;-64
2022/11/11 02:49:33;;;;;;;4.43;1.40;;;;;;;;;;5023488;28;20048;-67
2022/11/11 02:51:59;;;;;;;2.63;1.13;;;;;;;;;;5042782;28;20041;-61
2022/11/11 02:54:25;;;;;;;3.05;0.98;;;;;;;;;;5046538;28;20053;-62
2022/11/11 02:57:06;;;;;;;2.28;1.10;;;;;;;;;;5049225;28;20470;-60
2022/11/11 02:59:33;;;;;;;4.03;1.20;;;;;;;;;;5044673;28;20383;-64
2022/11/11 03:01:59;;;;;;;5.35;1.25;;;;;;;;;;5046757;28;20465;-67
2022/11/11 03:04:25;;;;;;;3.65;1.00;;;;;;;;;;5036683;28;20497;-62
2022/11/11 03:06:51;;;;;;;3.50;1.02;;;;;;;;;;5042273;28;20114;-62
2022/11/11 03:09:16;;;;;;;3.03;1.13;;;;;;;;;;5042026;28;20410;-65
2022/11/11 03:11:42;;;;;;;4.20;0.95;;;;;;;;;;5046563;28;20486;-62
2022/11/11 03:14:08;;;;;;;3.33;1.10;;;;;;;;;;5040191;28;20490;-62
2022/11/11 03:19:19;;;;;;;4.35;1.17;;;;;;;;;;5043397;28;20045;-65
2022/11/11 03:21:45;;;;;;;3.65;1.35;;;;;;;;;;5046450;28;20040;-66
2022/11/11 03:24:11;;;;;;;3.83;1.20;;;;;;;;;;5047419;28;20049;-61
2022/11/11 03:26:38;;;;;;;4.82;1.23;;;;;;;;;;5042671;28;20098;-63
2022/11/11 03:29:04;;;;;;;5.20;1.10;;;;;;;;;;5047267;28;20049;-63
2022/11/11 03:31:30;;;;;;;3.20;0.90;;;;;;;;;;5040059;28;20056;-69
2022/11/11 03:34:16;;;;;;;5.20;1.55;;;;;;;;;;5047509;28;20087;-63
2022/11/11 03:39:26;;;;;;;2.28;0.80;;;;;;;;;;5039611;28;20063;-62
2022/11/11 03:41:52;;;;;;;3.65;1.30;;;;;;;;;;5034971;28;20049;-64
2022/11/11 03:44:18;;;;;;;3.30;1.08;;;;;;;;;;5035566;28;20049;-62
2022/11/11 03:46:43;;;;;;;3.35;0.88;;;;;;;;;;5044016;28;20102;-64
2022/11/11 03:49:09;;;;;;;3.30;1.10;;;;;;;;;;5040852;28;20046;-62
2022/11/11 03:51:35;;;;;;;3.85;1.38;;;;;;;;;;5043113;28;20086;-66
2022/11/11 03:54:01;;;;;;;3.05;1.15;;;;;;;;;;5026906;28;20141;-64
2022/11/11 03:56:27;;;;;;;3.50;0.95;;;;;;;;;;5047279;28;20292;-62
2022/11/11 03:58:52;;;;;;;7.55;1.08;;;;;;;;;;5042215;28;20048;-71
2022/11/11 04:16:04;;;;;;;3.38;1.05;;;;;;;;;;4990328;28;20046;-72
2022/11/11 04:18:05;;;;;;;3.75;1.00;;;;;;;;;;4987362;28;20478;-64
2022/11/11 04:23:17;;;;;;;3.03;1.33;;;;;;;;;;4970165;28;20055;-64
2022/11/11 04:25:48;;;;;;;2.25;0.90;;;;;;;;;;4996436;28;20105;-69
2022/11/11 04:31:00;;;;;;;6.20;1.00;;;;;;;;;;4995199;28;20177;-67
2022/11/11 04:33:26;;;;;;;3.67;1.02;;;;;;;;;;4991315;28;20047;-65
2022/11/11 04:35:51;;;;;;;3.33;1.05;;;;;;;;;;4994173;28;20046;-65
2022/11/11 04:41:02;;;;;;;2.75;0.90;;;;;;;;;;4995198;28;20058;-69
2022/11/11 04:43:29;;;;;;;2.40;0.90;;;;;;;;;;4985478;28;20046;-63
2022/11/11 04:45:59;;;;;;;2.45;1.02;;;;;;;;;;4996893;28;20053;-72
2022/11/11 04:48:25;;;;;;;6.03;1.20;;;;;;;;;;5042076;28;20044;-63
2022/11/11 04:50:51;;;;;;;1.95;0.82;;;;;;;;;;5042373;28;20044;-70
2022/11/11 04:53:18;;;;;;;3.42;1.13;;;;;;;;;;5038829;28;20272;-75
2022/11/11 04:58:33;;;;;;;2.95;0.95;;;;;;;;;;5040139;28;20123;-66
2022/11/11 05:01:00;;;;;;;2.72;1.02;;;;;;;;;;5044961;28;20041;-63
2022/11/11 05:03:26;;;;;;;2.15;1.00;;;;;;;;;;5047895;28;20540;-73
2022/11/11 05:08:55;;;;;;;3.78;0.90;;;;;;;;;;5043400;28;20128;-64
2022/11/11 05:11:25;;;;;;;3.78;1.15;;;;;;;;;;5038002;28;20079;-65
2022/11/11 05:22:21;;;;;;;5.35;1.35;;;;;;;;;;5043980;28;20037;-69
2022/11/11 05:27:31;;;;;;;;;;;;;;;;;;5048082;28;20048;-69
2022/11/11 05:29:57;;;;;;;3.78;0.98;;;;;;;;;;5044065;28;19924;-64
2022/11/11 05:32:23;;;;;;;2.38;1.00;;;;;;;;;;5042924;28;20040;-63
2022/11/11 05:34:49;;;;;;;2.90;0.90;;;;;;;;;;5032913;28;20049;-65
2022/11/11 05:37:16;;;;;;;3.90;1.38;;;;;;;;;;5049067;28;20436;-67
2022/11/11 05:39:42;;;;;;;5.53;1.20;;;;;;;;;;5044608;28;20045;-67
2022/11/11 05:42:08;;;;;;;14.30;1.52;;;;;;;;;;5044984;28;20052;-70
2022/11/11 05:44:35;;;;;;;2.50;1.00;;;;;;;;;;5040848;28;20563;-75
2022/11/11 05:47:01;;;;;;;2.60;1.00;;;;;;;;;;5045051;28;20049;-69
2022/11/11 05:49:27;;;;;;;6.00;1.10;;;;;;;;;;5047852;28;20053;-69
2022/11/11 05:51:54;;;;;;;3.38;1.20;;;;;;;;;;5044803;28;20093;-66
2022/11/11 05:54:20;;;;;;;3.03;1.10;;;;;;;;;;5047537;28;20051;-71
2022/11/11 05:56:46;;;;;;;6.03;1.40;;;;;;;;;;5042778;28;20045;-73
2022/11/11 05:59:12;;;;;;;5.15;1.40;;;;;;;;;;5043677;28;20654;-68
2022/11/11 06:01:38;;;;;;;5.35;1.00;;;;;;;;;;5043196;28;20057;-71
2022/11/11 06:04:04;;;;;;;3.53;1.17;;;;;;;;;;5044528;28;20405;-66
2022/11/11 06:06:31;;;;;;;2.92;1.13;;;;;;;;;;5043455;28;20382;-70
2022/11/11 06:08:57;;;;;;;4.57;1.15;;;;;;;;;;5039982;28;20150;-75
2022/11/11 06:11:24;;;;;;;3.70;1.13;;;;;;;;;;5046314;28;20422;-68
2022/11/11 06:13:50;;;;;;;4.50;1.10;;;;;;;;;;5023131;28;20049;-68
2022/11/11 06:16:16;;;;;;;3.92;1.27;;;;;;;;;;5044128;28;20053;-64
2022/11/11 06:18:42;;;;;;;9.55;1.40;;;;;;;;;;5043855;28;20152;-71
2022/11/11 06:21:08;;;;;;;4.95;1.15;;;;;;;;;;5042133;28;20041;-68
2022/11/11 06:23:34;;;;;;;4.57;1.38;;;;;;;;;;5025330;28;20049;-67
2022/11/11 06:26:12;;;;;;;3.75;1.52;;;;;;;;;;5039557;28;20355;-67
2022/11/11 06:28:49;;;;;;;5.38;1.42;;;;;;;;;;5044265;28;20144;-72
2022/11/11 06:31:17;;;;;;;4.07;1.10;;;;;;;;;;5046362;28;20489;-67
2022/11/11 06:33:44;;;;;;;4.40;1.20;;;;;;;;;;5051708;28;20061;-67
2022/11/11 06:36:12;;;;;;;5.22;1.73;;;;;;;;;;5031037;28;20048;-67
2022/11/11 06:38:39;;;;;;;9.10;1.55;;;;;;;;;;5048310;28;20501;-66
2022/11/11 06:41:06;;;;;;;5.70;1.40;;;;;;;;;;5040917;28;20110;-71
2022/11/11 06:43:32;;;;;;;4.68;1.40;;;;;;;;;;5041403;28;20061;-66
2022/11/11 06:45:58;;;;;;;6.38;1.65;;;;;;;;;;5040526;28;20135;-68
2022/11/11 06:48:26;;;;;;;8.80;1.92;;;;;;;;;;5042840;28;20054;-68
2022/11/11 06:50:52;;;;;;;4.10;1.40;;;;;;;;;;5039449;28;20413;-69
2022/11/11 06:53:20;;;;;;;7.30;1.60;;;;;;;;;;5043357;28;20041;-73
2022/11/11 06:55:46;;;;;;;3.80;1.10;;;;;;;;;;5046395;28;20103;-75
2022/11/11 06:58:13;;;;;;;5.53;1.52;;;;;;;;;;5040173;28;20053;-66
2022/11/11 07:00:39;;;;;;;5.10;1.60;;;;;;;;;;5046431;28;20044;-71
2022/11/11 07:03:06;;;;;;;8.27;1.40;;;;;;;;;;5043598;28;20457;-68
2022/11/11 07:05:33;;;;;;;9.23;2.10;;;;;;;;;;5044699;28;20482;-65
2022/11/11 07:08:07;;;;;;;6.28;1.40;;;;;;;;;;5044362;28;20099;-67
2022/11/11 07:10:36;;;;;;;8.20;2.47;;;;;;;;;;5043021;28;20045;-71
2022/11/11 07:13:02;;;;;;;6.53;1.88;;;;;;;;;;5040976;28;20399;-66
2022/11/11 07:15:28;;;;;;;8.50;1.60;;;;;;;;;;5042731;28;20045;-68
2022/11/11 07:17:54;;;;;;;9.38;2.00;;;;;;;;;;5037646;28;20452;-65
2022/11/11 07:20:20;;;;;;;8.48;2.22;;;;;;;;;;5040369;28;20506;-68
2022/11/11 07:22:46;;;;;;;15.77;3.28;;;;;;;;;;5042571;28;20144;-63
2022/11/11 07:25:13;;;;;;;17.02;3.00;;;;;;;;;;5039211;28;20064;-66
2022/11/11 07:27:39;;;;;;;9.13;2.25;;;;;;;;;;5042704;28;20053;-65
2022/11/11 07:30:06;;;;;;;13.85;2.40;;;;;;;;;;5042250;28;20045;-68
2022/11/11 07:32:32;;;;;;;13.48;2.53;;;;;;;;;;5046693;28;20045;-75
2022/11/11 07:34:58;;;;;;;14.43;2.97;;;;;;;;;;5044745;28;20056;-70
2022/11/11 07:37:26;;;;;;;8.70;2.17;;;;;;;;;;5041832;28;20149;-74
2022/11/11 07:39:53;;;;;;;6.28;2.10;;;;;;;;;;5042802;28;20053;-68
2022/11/11 07:42:20;;;;;;;12.25;3.42;;;;;;;;;;5042732;28;20049;-72
2022/11/11 07:44:46;;;;;;;13.45;3.13;;;;;;;;;;5046107;28;20053;-70
2022/11/11 07:47:12;;;;;;;9.15;2.70;;;;;;;;;;5042329;28;20075;-69
2022/11/11 07:49:37;;;;;;;20.45;5.75;;;;;;;;;;5034439;28;20401;-76
2022/11/11 07:52:03;;;;;;;18.50;3.58;;;;;;;;;;5041356;28;20414;-68
2022/11/11 07:54:30;;;;;;;9.93;3.30;;;;;;;;;;5042831;28;20060;-76
2022/11/11 07:56:56;;;;;;;14.02;3.08;;;;;;;;;;5035545;28;20041;-79
2022/11/11 07:59:22;;;;;;;38.58;4.32;;;;;;;;;;5027371;28;20056;-76
2022/11/11 08:01:48;;;;;;;19.30;2.65;;;;;;;;;;5039940;28;20036;-70
2022/11/11 08:04:14;;;;;;;10.13;2.03;;;;;;;;;;5037007;28;20064;-66
2022/11/11 08:06:40;;;;;;;18.33;4.03;;;;;;;;;;5039946;28;20090;-69
2022/11/11 08:09:06;;;;;;;9.88;2.40;;;;;;;;;;5036446;28;20049;-76
2022/11/11 08:14:16;;;;;;;5.40;2.08;;;;;;;;;;5041761;28;20080;-72
2022/11/11 08:16:42;;;;;;;5.15;2.30;;;;;;;;;;5044526;28;20052;-75
2022/11/11 08:19:08;;;;;;;5.85;1.98;;;;;;;;;;5031057;28;20429;-73
2022/11/11 08:21:34;;;;;;;7.38;1.67;;;;;;;;;;5040112;28;20417;-73
2022/11/11 08:24:00;;;;;;;8.30;2.17;;;;;;;;;;5040219;28;20053;-69
2022/11/11 08:26:25;;;;;;;5.63;2.20;;;;;;;;;;5043128;28;20047;-70
2022/11/11 08:28:52;;;;;;;10.05;2.40;;;;;;;;;;5043092;28;20061;-71
2022/11/11 08:31:18;;;;;;;8.15;2.80;;;;;;;;;;5019862;28;20223;-68
2022/11/11 08:33:44;;;;;;;7.20;2.50;;;;;;;;;;5041086;28;20446;-70
2022/11/11 08:36:10;;;;;;;9.32;2.80;;;;;;;;;;5036296;28;20140;-72
2022/11/11 08:38:38;;;;;;;8.73;3.05;;;;;;;;;;5039328;28;20072;-66
2022/11/11 08:41:06;;;;;;;7.95;3.72;;;;;;;;;;5040966;28;20049;-65
2022/11/11 08:43:32;;;;;;;12.63;4.60;;;;;;;;;;5039601;28;20064;-73
2022/11/11 08:46:00;;;;;;;15.00;4.65;;;;;;;;;;5038033;28;20041;-78
2022/11/11 08:48:26;;;;;;;15.82;2.88;;;;;;;;;;5039445;28;20090;-66
2022/11/11 08:50:52;;;;;;;5.03;2.40;;;;;;;;;;5042724;28;20072;-65
2022/11/11 08:53:19;;;;;;;7.60;2.83;;;;;;;;;;5041089;28;20174;-67
2022/11/11 08:55:45;;;;;;;16.60;3.17;;;;;;;;;;5047804;28;20569;-65
2022/11/11 08:58:12;;;;;;;11.15;2.92;;;;;;;;;;5042571;28;20112;-67
2022/11/11 09:00:38;;;;;;;7.35;2.80;;;;;;;;;;5044417;28;20067;-77
2022/11/11 09:03:07;;;;;;;7.57;2.80;;;;;;;;;;5030299;28;20068;-69
2022/11/11 09:05:33;;;;;;;7.78;2.63;;;;;;;;;;5040015;28;20052;-66
2022/11/11 09:08:00;;;;;;;7.53;2.17;;;;;;;;;;5040582;28;20425;-65
2022/11/11 09:10:26;;;;;;;7.38;2.70;;;;;;;;;;5039220;28;20045;-68
2022/11/11 09:12:56;;;;;;;15.43;3.13;;;;;;;;;;5040055;28;20159;-68
2022/11/11 09:15:22;;;;;;;11.57;3.10;;;;;;;;;;5040997;28;20322;-71
2022/11/11 09:17:49;;;;;;;13.68;2.65;;;;;;;;;;5038375;28;20059;-72
2022/11/11 09:20:15;;;;;;;11.00;2.72;;;;;;;;;;5026039;28;20074;-73
2022/11/11 09:22:42;;;;;;;12.98;2.30;;;;;;;;;;5040774;28;20057;-69
2022/11/11 09:25:09;;;;;;;11.77;2.50;;;;;;;;;;5041544;28;20040;-69
2022/11/11 09:27:35;;;;;;;16.98;2.90;;;;;;;;;;5040426;28;20048;-70
2022/11/11 09:30:01;;;;;;;13.80;2.90;;;;;;;;;;5040341;28;20555;-70
2022/11/11 09:32:27;;;;;;;5.35;2.58;;;;;;;;;;5047971;28;20053;-71
2022/11/11 09:34:54;;;;;;;11.50;3.80;;;;;;;;;;5047499;28;20075;-71
2022/11/11 09:37:20;;;;;;;11.30;3.08;;;;;;;;;;5045805;28;20094;-70
2022/11/11 09:39:47;;;;;;;11.50;2.60;;;;;;;;;;5046012;28;20049;-69
2022/11/11 09:42:18;;;;;;;11.45;2.97;;;;;;;;;;5046269;28;20084;-72
2022/11/11 09:45:14;;;;;;;13.35;3.47;;;;;;;;;;5037107;28;20382;-74
2022/11/11 09:48:01;;;;;;;9.65;2.97;;;;;;;;;;5039806;28;20053;-72
2022/11/11 09:50:31;;;;;;;12.00;3.70;;;;;;;;;;5046875;28;20045;-71
2022/11/11 09:53:06;;;;;;;11.48;3.65;;;;;;;;;;5042847;28;20041;-71
2022/11/11 09:55:56;;;;;;;15.90;3.53;;;;;;;;;;5042287;28;20132;-73
2022/11/11 09:58:33;;;;;;;9.23;3.08;;;;;;;;;;5027210;28;20125;-71
2022/11/11 10:01:07;;;;;;;11.20;3.63;;;;;;;;;;5041892;28;20040;-73
2022/11/11 10:03:40;;;;;;;36.72;4.80;;;;;;;;;;5046625;28;20052;-75
2022/11/11 10:06:13;;;;;;;53.70;5.75;;;;;;;;;;5048968;28;20450;-70
2022/11/11 10:08:43;;;;;;;30.30;3.88;;;;;;;;;;5041395;28;20650;-76
2022/11/11 10:11:19;;;;;;;8.07;3.30;;;;;;;;;;5044537;28;20113;-73
2022/11/11 10:13:45;;;;;;;6.88;2.70;;;;;;;;;;5047243;28;20451;-76
2022/11/11 10:16:44;;;;;;;6.45;2.78;;;;;;;;;;5038799;28;20053;-73
2022/11/11 10:19:31;;;;;;;10.30;3.17;;;;;;;;;;5046014;28;20080;-76
2022/11/11 10:22:05;;;;;;;10.07;3.00;;;;;;;;;;5041516;28;20077;-73
2022/11/11 10:24:34;;;;;;;13.85;3.42;;;;;;;;;;5037452;28;20506;-77
2022/11/11 10:27:13;;;;;;;9.57;3.63;;;;;;;;;;5016595;28;20434;-73
2022/11/11 10:29:43;;;;;;;12.02;3.40;;;;;;;;;;5034429;28;20367;-74
2022/11/11 10:32:22;;;;;;;12.73;3.90;;;;;;;;;;5038717;28;20041;-72
2022/11/11 10:34:48;;;;;;;13.23;4.10;;;;;;;;;;5031305;28;20402;-75
2022/11/11 10:37:29;;;;;;;10.13;3.15;;;;;;;;;;5037229;28;20056;-74
2022/11/11 10:40:20;;;;;;;16.10;3.47;;;;;;;;;;5045361;28;20045;-72
2022/11/11 10:42:46;;;;;;;12.00;3.50;;;;;;;;;;5044800;28;20430;-72
2022/11/11 10:45:20;;;;;;;12.52;3.10;;;;;;;;;;5041632;28;20507;-73
2022/11/11 10:47:50;;;;;;;10.40;3.40;;;;;;;;;;5038706;28;20041;-77
2022/11/11 10:50:29;;;;;;;11.57;3.10;;;;;;;;;;5043165;28;20572;-73
2022/11/11 10:53:29;;;;;;;9.65;2.90;;;;;;;;;;5035251;28;20057;-75
2022/11/11 10:56:26;;;;;;;11.80;3.30;;;;;;;;;;5039674;28;20123;-73
2022/11/11 10:59:09;;;;;;;10.15;2.80;;;;;;;;;;5037037;28;20053;-74
2022/11/11 11:01:53;;;;;;;8.82;2.65;;;;;;;;;;5040005;28;20061;-74
2022/11/11 11:04:36;;;;;;;8.50;2.53;;;;;;;;;;5037169;28;20049;-73
2022/11/11 11:07:05;;;;;;;8.52;2.72;;;;;;;;;;5043415;28;20305;-73
2022/11/11 11:09:39;;;;;;;7.15;2.63;;;;;;;;;;5043118;28;20048;-72
2022/11/11 11:12:31;;;;;;;;;;;;;;;;;;5033583;28;20060;-72
2022/11/11 11:15:03;;;;;;;8.70;2.30;;;;;;;;;;5018171;28;20454;-72
2022/11/11 11:17:58;;;;;;;9.38;2.72;;;;;;;;;;5043076;28;20052;-70
2022/11/11 11:20:24;;;;;;;10.98;2.80;;;;;;;;;;5031217;28;20140;-71
2022/11/11 11:22:53;;;;;;;7.43;2.85;;;;;;;;;;5038839;28;20048;-71
2022/11/11 11:25:20;;;;;;;7.22;2.88;;;;;;;;;;5033051;28;20064;-73
2022/11/11 11:27:48;;;;;;;7.32;3.10;;;;;;;;;;5033788;28;20078;-72
2022/11/11 11:30:17;;;;;;;12.20;3.95;;;;;;;;;;5037691;28;20128;-71
2022/11/11 11:33:00;;;;;;;8.10;3.22;;;;;;;;;;5040207;28;20124;-71
2022/11/11 11:35:38;;;;;;;8.35;2.92;;;;;;;;;;5039011;28;20048;-71
2022/11/11 11:38:09;;;;;;;9.38;3.08;;;;;;;;;;5043587;28;20052;-72
2022/11/11 11:40:45;;;;;;;6.88;2.88;;;;;;;;;;5036186;28;20392;-71
2022/11/11 11:43:34;;;;;;;10.10;2.95;;;;;;;;;;5037677;28;20053;-72
2022/11/11 11:46:04;;;;;;;9.52;3.08;;;;;;;;;;5041065;28;20041;-70
2022/11/11 11:48:51;;;;;;;12.35;3.10;;;;;;;;;;5039987;28;20044;-71
2022/11/11 11:51:46;;;;;;;9.30;3.03;;;;;;;;;;5022599;28;20063;-72
2022/11/11 11:54:24;;;;;;;7.60;2.60;;;;;;;;;;5028802;28;20044;-71
2022/11/11 11:56:55;;;;;;;5.22;2.55;;;;;;;;;;5017803;28;20159;-69
2022/11/11 11:59:43;;;;;;;4.22;2.20;;;;;;;;;;5019908;28;20037;-70
2022/11/11 12:02:39;;;;;;;12.27;3.70;;;;;;;;;;5030552;28;20060;-69
2022/11/11 12:05:26;;;;;;;9.10;2.80;;;;;;;;;;5036552;28;20069;-70
2022/11/11 12:08:40;;;;;;;5.63;2.65;;;;;;;;;;5033708;28;20045;-70
2022/11/11 12:11:14;;;;;;;8.60;2.97;;;;;;;;;;4969806;28;20151;-72
2022/11/11 12:14:22;;;;;;;6.00;2.38;;;;;;;;;;4981755;28;20484;-70
2022/11/11 12:17:06;;;;;;;6.65;2.50;;;;;;;;;;4888978;29;20406;-71
2022/11/11 12:19:43;;;;;;;4.95;2.40;;;;;;;;;;4877291;29;20052;-69
2022/11/11 12:22:30;;;;;;;5.55;2.28;;;;;;;;;;4885884;29;20048;-73
2022/11/11 12:25:18;;;;;;;6.45;2.65;;;;;;;;;;4903014;29;20135;-73
2022/11/11 12:28:26;;;;;;;6.38;2.20;;;;;;;;;;4889757;29;20623;-69
2022/11/11 12:31:14;;;;;;;7.25;2.33;;;;;;;;;;4892079;29;20084;-68
2022/11/11 12:34:03;;;;;;;5.78;2.03;;;;;;;;;;4885751;29;20052;-72
2022/11/11 12:36:32;;;;;;;6.32;2.42;;;;;;;;;;4897647;29;20052;-71
2022/11/11 12:39:24;;;;;;;10.38;2.88;;;;;;;;;;4891473;29;20409;-71
2022/11/11 12:42:08;;;;;;;11.13;3.35;;;;;;;;;;4915383;28;20042;-71
2022/11/11 12:44:59;;;;;;;6.63;2.33;;;;;;;;;;4962471;28;20059;-70
2022/11/11 12:47:47;;;;;;;9.90;2.78;;;;;;;;;;4960420;28;20377;-72
2022/11/11 12:50:29;;;;;;;9.18;1.88;;;;;;;;;;4962399;28;20046;-70
2022/11/11 12:53:40;;;;;;;5.28;2.30;;;;;;;;;;4976803;28;20449;-71
2022/11/11 12:56:53;;;;;;;4.82;2.45;;;;;;;;;;5013119;28;20232;-72
2022/11/11 12:59:30;;;;;;;5.72;3.15;;;;;;;;;;4952058;28;20401;-72
2022/11/11 13:02:25;;;;;;;5.38;2.90;;;;;;;;;;4942842;28;20102;-72
2022/11/11 13:05:33;;;;;;;9.55;2.95;;;;;;;;;;4943283;28;20073;-72
2022/11/11 13:08:21;;;;;;;7.45;3.00;;;;;;;;;;4887292;29;20055;-74
2022/11/11 13:11:02;;;;;;;4.38;2.35;;;;;;;;;;4884376;29;20140;-72
2022/11/11 13:13:46;;;;;;;6.60;2.22;;;;;;;;;;4885037;29;20096;-74
2022/11/11 13:16:21;;;;;;;;;;;;;;;;;;4884460;29;20371;-75
2022/11/11 13:19:10;;;;;;;5.20;2.45;;;;;;;;;;4887312;29;19931;-72
2022/11/11 13:21:54;;;;;;;4.80;2.15;;;;;;;;;;4879540;29;20136;-72
2022/11/11 13:24:23;;;;;;;7.73;2.10;;;;;;;;;;4885965;29;20147;-72
2022/11/11 13:27:16;;;;;;;6.20;2.22;;;;;;;;;;4884925;29;20245;-74
2022/11/11 13:30:09;;;;;;;6.45;2.15;;;;;;;;;;4908703;28;20043;-73
2022/11/11 13:32:41;;;;;;;4.13;1.80;;;;;;;;;;4963332;28;20054;-75
2022/11/11 13:35:22;;;;;;;5.05;2.33;;;;;;;;;;4964053;28;20098;-74
2022/11/11 13:37:49;;;;;;;4.63;2.60;;;;;;;;;;4977394;28;20103;-73
2022/11/11 13:40:44;;;;;;;8.77;2.75;;;;;;;;;;5036355;28;20511;-74
2022/11/11 13:43:26;;;;;;;6.75;3.70;;;;;;;;;;5042637;28;20083;-74
2022/11/11 13:45:55;;;;;;;6.38;2.70;;;;;;;;;;5041983;28;20486;-72
2022/11/11 13:48:43;;;;;;;5.70;2.45;;;;;;;;;;5042554;28;20053;-73
2022/11/11 13:51:33;;;;;;;4.85;2.60;;;;;;;;;;5041445;28;20498;-73
2022/11/11 13:54:01;;;;;;;7.72;2.35;;;;;;;;;;5039265;28;20049;-73
2022/11/11 13:56:34;;;;;;;7.60;1.90;;;;;;;;;;5040135;28;20053;-72
2022/11/11 13:59:01;;;;;;;4.45;2.50;;;;;;;;;;5027558;28;20111;-73
2022/11/11 14:01:38;;;;;;;5.32;2.00;;;;;;;;;;5044547;28;20063;-74
2022/11/11 14:04:07;;;;;;;5.28;2.42;;;;;;;;;;5039514;28;20045;-72
2022/11/11 14:06:32;;;;;;;4.20;2.33;;;;;;;;;;5046335;28;20048;-75
2022/11/11 14:08:58;;;;;;;7.30;2.65;;;;;;;;;;5046998;28;20730;-72
2022/11/11 14:11:25;;;;;;;6.53;2.58;;;;;;;;;;5046402;28;20044;-72
2022/11/11 14:14:18;;;;;;;8.50;2.60;;;;;;;;;;5045762;28;20473;-74
2022/11/11 14:16:44;;;;;;;6.30;2.03;;;;;;;;;;5046275;28;20458;-75
2022/11/11 14:19:32;;;;;;;5.45;2.50;;;;;;;;;;5026950;28;20072;-75
2022/11/11 14:22:00;;;;;;;7.53;2.90;;;;;;;;;;5035975;28;20128;-74
2022/11/11 14:24:31;;;;;;;8.55;2.53;;;;;;;;;;5042025;28;20549;-73
2022/11/11 14:27:16;;;;;;;3.30;1.88;;;;;;;;;;5044471;28;20504;-74
2022/11/11 14:29:48;;;;;;;;;;;;;;;;;;5036955;28;20071;-74
2022/11/11 14:32:22;;;;;;;8.82;2.28;;;;;;;;;;5042463;28;20071;-74
2022/11/11 14:34:57;;;;;;;9.30;2.15;;;;;;;;;;5044023;28;20053;-75
2022/11/11 14:37:41;;;;;;;5.55;2.53;;;;;;;;;;5041054;28;20049;-72
2022/11/11 14:40:12;;;;;;;6.85;2.78;;;;;;;;;;5039729;28;20053;-73
2022/11/11 14:42:38;;;;;;;8.02;2.65;;;;;;;;;;5037181;28;20313;-73
2022/11/11 14:45:25;;;;;;;6.97;2.40;;;;;;;;;;5040877;28;20079;-69
2022/11/11 14:47:51;;;;;;;6.80;2.33;;;;;;;;;;5040252;28;20136;-73
2022/11/11 14:50:32;;;;;;;9.18;2.72;;;;;;;;;;5039743;28;20610;-73
2022/11/11 14:53:07;;;;;;;6.32;2.60;;;;;;;;;;5039627;28;20673;-73
2022/11/11 14:55:38;;;;;;;7.03;2.65;;;;;;;;;;5019652;28;20616;-73
2022/11/11 14:58:07;;;;;;;7.00;2.60;;;;;;;;;;5036735;28;20068;-75
2022/11/11 15:00:50;;;;;;;7.35;2.15;;;;;;;;;;5035047;28;20045;-74
2022/11/11 15:03:24;;;;;;;3.28;2.00;;;;;;;;;;5035830;28;20048;-73
2022/11/11 15:05:56;;;;;;;6.25;2.30;;;;;;;;;;5044079;28;20045;-74
2022/11/11 15:08:53;;;;;;;6.80;2.13;;;;;;;;;;5038176;28;20142;-74
2022/11/11 15:11:30;;;;;;;6.35;2.03;;;;;;;;;;5019697;28;20510;-73
2022/11/11 15:14:05;;;;;;;6.13;1.92;;;;;;;;;;5041544;28;20064;-73
2022/11/11 15:16:36;;;;;;;6.53;2.30;;;;;;;;;;5035159;28;20045;-74
2022/11/11 15:19:08;;;;;;;8.50;2.60;;;;;;;;;;5039683;28;20060;-72
2022/11/11 15:21:36;;;;;;;7.53;2.33;;;;;;;;;;5039025;28;20040;-70
2022/11/11 15:24:33;;;;;;;9.38;2.47;;;;;;;;;;5022258;28;20501;-72
2022/11/11 15:27:14;;;;;;;6.43;2.70;;;;;;;;;;5037140;28;20041;-72
2022/11/11 15:29:39;;;;;;;5.50;2.40;;;;;;;;;;5025392;28;20045;-73
2022/11/11 15:32:14;;;;;;;5.68;2.50;;;;;;;;;;5029355;28;20060;-73
2022/11/11 15:35:20;;;;;;;5.25;2.60;;;;;;;;;;5036522;28;20041;-73
2022/11/11 15:37:48;;;;;;;;;;;;;;;;;;5030502;28;20052;-72
2022/11/11 15:40:19;;;;;;;5.43;2.83;;;;;;;;;;5034448;28;20393;-71
2022/11/11 15:42:48;;;;;;;6.00;2.60;;;;;;;;;;5045411;28;20041;-72
2022/11/11 15:45:22;;;;;;;7.03;2.75;;;;;;;;;;5044677;28;20045;-71
2022/11/11 15:47:49;;;;;;;4.70;2.45;;;;;;;;;;5046011;28;20076;-73
2022/11/11 15:50:30;;;;;;;3.60;2.00;;;;;;;;;;5039697;28;20080;-72
2022/11/11 15:52:58;;;;;;;6.20;1.85;;;;;;;;;;5032381;28;20057;-70
2022/11/11 15:55:27;;;;;;;3.58;1.42;;;;;;;;;;5026744;28;20041;-71
2022/11/11 15:57:52;;;;;;;5.70;1.83;;;;;;;;;;5036548;28;20360;-72
2022/11/11 16:00:26;;;;;;;7.57;2.08;;;;;;;;;;5040274;28;20118;-71
2022/11/11 16:02:55;;;;;;;4.43;1.73;;;;;;;;;;5041938;28;20462;-71
2022/11/11 16:05:26;;;;;;;4.78;1.83;;;;;;;;;;5024046;28;20045;-73
2022/11/11 16:07:55;;;;;;;5.95;1.70;;;;;;;;;;5044370;28;20064;-69
2022/11/11 16:10:34;;;;;;;4.57;1.85;;;;;;;;;;5015332;28;20452;-73
2022/11/11 16:13:21;;;;;;;5.28;2.30;;;;;;;;;;5040956;28;20053;-71
2022/11/11 16:16:04;;;;;;;9.27;2.25;;;;;;;;;;5040508;28;20049;-71
2022/11/11 16:18:49;;;;;;;6.38;2.08;;;;;;;;;;5041771;28;20053;-73
2022/11/11 16:21:24;;;;;;;5.18;1.48;;;;;;;;;;5044798;28;20478;-73
2022/11/11 16:23:51;;;;;;;4.45;1.55;;;;;;;;;;5050269;28;20175;-74